createdAt,value
2022-08-09T00:00:46.630Z,18.22
2022-08-09T00:01:55.512Z,18.00
2022-08-09T00:04:00.037Z,17.94
2022-08-09T00:04:34.632Z,17.78
2022-08-09T00:06:18.464Z,17.76
2022-08-09T00:07:11.022Z,17.84
2022-08-09T00:08:31.966Z,18.17
2022-08-09T00:09:40.876Z,17.83
2022-08-09T00:10:47.988Z,17.50
2022-08-09T00:12:03.977Z,17.35
2022-08-09T00:13:17.398Z,17.27
2022-08-09T00:14:36.340Z,17.32
2022-08-09T00:15:58.158Z,17.44
2022-08-09T00:17:08.879Z,17.26
2022-08-09T00:18:36.709Z,17.27
2022-08-09T00:19:47.849Z,17.24
2022-08-09T00:20:55.906Z,17.57
2022-08-09T00:22:04.266Z,17.42
2022-08-09T00:23:55.258Z,17.09
2022-08-09T00:24:42.442Z,17.32
2022-08-09T00:25:51.799Z,17.24
2022-08-09T00:27:00.556Z,17.00
2022-08-09T00:28:08.761Z,17.29
2022-08-09T00:29:39.763Z,17.44
2022-08-09T00:30:45.397Z,17.62
2022-08-09T00:31:59.150Z,17.84
2022-08-09T00:33:09.373Z,17.96
2022-08-09T00:34:20.730Z,17.99
2022-08-09T00:35:29.696Z,18.01
2022-08-09T00:36:53.023Z,18.24
2022-08-09T00:38:00.594Z,18.39
2022-08-09T00:40:09.247Z,18.53
2022-08-09T00:40:52.577Z,18.84
2022-08-09T00:44:17.019Z,19.29
2022-08-09T00:44:17.022Z,19.12
2022-08-09T00:45:15.617Z,19.37
2022-08-09T00:46:37.038Z,19.33
2022-08-09T00:47:55.717Z,19.48
2022-08-09T00:49:04.002Z,19.18
2022-08-09T00:50:14.823Z,19.16
2022-08-09T00:51:22.188Z,19.49
2022-08-09T00:52:34.561Z,19.58
2022-08-09T00:53:41.671Z,19.69
2022-08-09T00:54:54.862Z,19.88
2022-08-09T00:56:10.050Z,20.03
2022-08-09T00:57:20.860Z,20.00
2022-08-09T00:58:49.030Z,20.38
2022-08-09T00:59:57.836Z,20.59
2022-08-09T01:01:32.236Z,20.69
2022-08-09T01:02:43.977Z,21.05
2022-08-09T01:04:23.187Z,21.21
2022-08-09T01:06:13.902Z,21.39
2022-08-09T01:08:00.087Z,21.57
2022-08-09T01:09:36.993Z,21.64
2022-08-09T01:11:14.957Z,21.53
2022-08-09T01:12:51.068Z,21.68
2022-08-09T01:14:01.983Z,21.89
2022-08-09T01:15:16.866Z,22.10
2022-08-09T01:16:26.073Z,22.06
2022-08-09T01:17:34.563Z,21.88
2022-08-09T01:18:41.607Z,21.89
2022-08-09T01:20:03.111Z,21.94
2022-08-09T01:21:18.406Z,21.95
2022-08-09T01:22:43.172Z,21.82
2022-08-09T01:24:06.504Z,22.22
2022-08-09T01:25:41.953Z,22.31
2022-08-09T01:27:02.703Z,22.55
2022-08-09T01:28:13.882Z,22.59
2022-08-09T01:29:28.660Z,22.60
2022-08-09T01:30:51.730Z,22.72
2022-08-09T01:32:30.156Z,22.75
2022-08-09T01:33:35.396Z,22.73
2022-08-09T01:34:45.151Z,22.79
2022-08-09T01:36:14.942Z,22.91
2022-08-09T01:37:43.116Z,23.01
2022-08-09T01:38:52.696Z,22.83
2022-08-09T01:40:03.750Z,22.83
2022-08-09T01:41:37.600Z,22.94
2022-08-09T01:43:01.562Z,22.55
2022-08-09T01:44:10.857Z,22.33
2022-08-09T01:45:18.119Z,22.11
2022-08-09T01:46:47.013Z,21.97
2022-08-09T01:47:54.670Z,21.95
2022-08-09T01:49:15.533Z,21.82
2022-08-09T01:50:36.624Z,21.90
2022-08-09T01:51:58.912Z,22.01
2022-08-09T01:53:19.649Z,22.13
2022-08-09T01:54:33.347Z,22.18
2022-08-09T01:55:43.138Z,22.23
2022-08-09T01:56:51.443Z,22.21
2022-08-09T01:57:58.038Z,22.45
2022-08-09T01:59:07.849Z,22.45
2022-08-09T02:00:35.126Z,22.57
2022-08-09T02:01:59.208Z,22.80
2022-08-09T02:03:13.570Z,22.95
2022-08-09T02:04:21.362Z,22.99
2022-08-09T02:05:37.996Z,23.03
2022-08-09T02:08:41.255Z,22.96
2022-08-09T02:08:58.508Z,22.90
2022-08-09T02:10:15.538Z,22.98
2022-08-09T02:11:24.801Z,23.02
2022-08-09T02:12:54.063Z,23.03
2022-08-09T02:14:07.127Z,23.20
2022-08-09T02:15:15.510Z,23.16
2022-08-09T02:16:52.828Z,22.98
2022-08-09T02:18:10.289Z,22.85
2022-08-09T02:19:19.465Z,22.71
2022-08-09T02:20:33.891Z,22.47
2022-08-09T02:21:44.894Z,22.29
2022-08-09T02:23:17.898Z,22.51
2022-08-09T02:24:31.324Z,22.71
2022-08-09T02:25:52.784Z,22.73
2022-08-09T02:27:06.373Z,22.77
2022-08-09T02:28:31.186Z,22.71
2022-08-09T02:29:46.579Z,22.86
2022-08-09T02:31:06.933Z,22.90
2022-08-09T02:32:16.320Z,22.89
2022-08-09T02:33:38.458Z,23.09
2022-08-09T02:35:00.992Z,22.89
2022-08-09T02:36:30.643Z,22.72
2022-08-09T02:37:38.187Z,22.24
2022-08-09T02:38:54.902Z,21.94
2022-08-09T02:40:15.934Z,21.64
2022-08-09T02:41:55.078Z,21.40
2022-08-09T02:43:03.534Z,21.31
2022-08-09T02:44:29.139Z,21.49
2022-08-09T02:45:43.413Z,21.82
2022-08-09T02:46:56.470Z,22.21
2022-08-09T02:48:05.003Z,22.33
2022-08-09T02:49:38.396Z,22.48
2022-08-09T02:50:56.833Z,22.72
2022-08-09T02:52:05.662Z,22.43
2022-08-09T02:54:01.154Z,22.17
2022-08-09T02:55:20.886Z,21.98
2022-08-09T02:56:39.533Z,21.73
2022-08-09T02:58:00.588Z,21.61
2022-08-09T02:59:26.431Z,21.46
2022-08-09T03:00:58.108Z,21.31
2022-08-09T03:02:12.237Z,21.38
2022-08-09T03:04:12.215Z,21.04
2022-08-09T03:04:51.722Z,21.44
2022-08-09T03:06:00.512Z,21.57
2022-08-09T03:07:13.824Z,21.44
2022-08-09T03:08:21.371Z,21.72
2022-08-09T03:09:33.482Z,21.72
2022-08-09T03:10:44.132Z,21.90
2022-08-09T03:12:05.992Z,22.01
2022-08-09T03:13:20.543Z,22.05
2022-08-09T03:14:31.122Z,21.91
2022-08-09T03:16:06.848Z,22.16
2022-08-09T03:17:08.908Z,22.22
2022-08-09T03:18:31.608Z,22.34
2022-08-09T03:19:58.883Z,22.35
2022-08-09T03:21:09.393Z,22.27
2022-08-09T03:22:24.984Z,22.43
2022-08-09T03:24:04.762Z,22.55
2022-08-09T03:25:26.146Z,22.72
2022-08-09T03:26:37.116Z,22.69
2022-08-09T03:27:55.225Z,22.72
2022-08-09T03:29:02.685Z,22.78
2022-08-09T03:30:30.083Z,23.07
2022-08-09T03:31:59.835Z,23.26
2022-08-09T03:33:17.214Z,23.28
2022-08-09T03:34:26.513Z,23.22
2022-08-09T03:36:11.253Z,23.29
2022-08-09T03:37:10.666Z,23.37
2022-08-09T03:38:33.816Z,23.33
2022-08-09T03:39:42.317Z,23.42
2022-08-09T03:40:56.879Z,23.44
2022-08-09T03:42:06.739Z,23.42
2022-08-09T03:43:16.613Z,23.44
2022-08-09T03:44:27.839Z,23.45
2022-08-09T03:46:03.387Z,23.44
2022-08-09T03:47:09.758Z,23.45
2022-08-09T03:48:18.797Z,23.44
2022-08-09T03:49:38.887Z,23.67
2022-08-09T03:51:55.267Z,23.63
2022-08-09T03:52:36.598Z,23.79
2022-08-09T03:53:46.115Z,24.05
2022-08-09T03:54:56.678Z,24.15
2022-08-09T03:56:05.343Z,24.65
2022-08-09T03:57:19.843Z,25.20
2022-08-09T03:58:31.000Z,25.44
2022-08-09T03:59:53.568Z,25.72
2022-08-09T04:01:03.962Z,25.98
2022-08-09T04:02:12.350Z,26.32
2022-08-09T04:03:35.501Z,26.54
2022-08-09T04:04:52.876Z,26.98
2022-08-09T04:06:00.505Z,27.36
2022-08-09T04:07:12.874Z,27.32
2022-08-09T04:08:26.164Z,27.47
2022-08-09T04:09:47.389Z,27.62
2022-08-09T04:11:02.173Z,27.91
2022-08-09T04:12:30.162Z,28.02
2022-08-09T04:14:36.893Z,28.39
2022-08-09T04:15:29.572Z,28.86
2022-08-09T04:16:41.126Z,28.96
2022-08-09T04:17:49.475Z,29.30
2022-08-09T04:18:58.790Z,29.83
2022-08-09T04:20:05.624Z,29.95
2022-08-09T04:21:16.345Z,29.75
2022-08-09T04:22:24.186Z,29.96
2022-08-09T04:23:34.748Z,30.33
2022-08-09T04:24:42.028Z,30.22
2022-08-09T04:25:49.852Z,30.35
2022-08-09T04:26:59.752Z,30.69
2022-08-09T04:28:07.574Z,30.70
2022-08-09T04:29:16.170Z,30.90
2022-08-09T04:30:26.034Z,31.04
2022-08-09T04:31:37.401Z,31.15
2022-08-09T04:33:01.234Z,31.30
2022-08-09T04:34:10.074Z,31.64
2022-08-09T04:35:17.159Z,31.65
2022-08-09T04:36:25.695Z,32.31
2022-08-09T04:37:45.120Z,32.24
2022-08-09T04:38:54.937Z,32.35
2022-08-09T04:40:02.159Z,32.31
2022-08-09T04:41:09.793Z,32.57
2022-08-09T04:42:18.570Z,32.76
2022-08-09T04:43:27.483Z,32.86
2022-08-09T04:44:41.619Z,32.95
2022-08-09T04:45:56.412Z,33.01
2022-08-09T04:47:10.880Z,32.94
2022-08-09T04:48:23.896Z,33.19
2022-08-09T04:49:54.644Z,33.20
2022-08-09T04:51:04.123Z,33.40
2022-08-09T04:52:18.357Z,33.43
2022-08-09T04:53:42.018Z,33.88
2022-08-09T04:54:48.994Z,34.00
2022-08-09T04:55:58.717Z,33.95
2022-08-09T04:57:12.310Z,34.11
2022-08-09T04:58:21.085Z,33.83
2022-08-09T04:59:30.142Z,33.82
2022-08-09T05:00:37.214Z,33.67
2022-08-09T05:01:46.682Z,33.83
2022-08-09T05:02:57.969Z,33.74
2022-08-09T05:04:30.818Z,33.85
2022-08-09T05:05:52.639Z,33.89
2022-08-09T05:07:19.005Z,34.03
2022-08-09T05:08:29.952Z,34.04
2022-08-09T05:09:45.413Z,34.12
2022-08-09T05:11:01.064Z,33.97
2022-08-09T05:12:11.159Z,34.12
2022-08-09T05:13:22.877Z,34.35
2022-08-09T05:14:36.799Z,34.54
2022-08-09T05:15:48.261Z,34.34
2022-08-09T05:17:05.483Z,34.46
2022-08-09T05:18:42.207Z,34.54
2022-08-09T05:20:03.808Z,34.57
2022-08-09T05:21:23.031Z,34.49
2022-08-09T05:23:50.430Z,34.30
2022-08-09T05:24:04.054Z,34.67
2022-08-09T05:25:16.097Z,34.62
2022-08-09T05:26:45.344Z,34.60
2022-08-09T05:27:58.740Z,34.56
2022-08-09T05:29:17.647Z,34.69
2022-08-09T05:30:27.078Z,34.83
2022-08-09T05:31:46.737Z,34.71
2022-08-09T05:32:59.095Z,34.64
2022-08-09T05:34:06.098Z,34.51
2022-08-09T05:35:17.458Z,34.79
2022-08-09T05:36:26.456Z,34.67
2022-08-09T05:37:46.443Z,34.83
2022-08-09T05:38:58.217Z,34.72
2022-08-09T05:40:05.368Z,34.82
2022-08-09T05:41:12.956Z,34.85
2022-08-09T05:42:28.636Z,35.07
2022-08-09T05:43:37.419Z,35.08
2022-08-09T05:44:50.951Z,35.01
2022-08-09T05:46:01.508Z,34.98
2022-08-09T05:47:10.470Z,35.14
2022-08-09T05:48:20.232Z,34.99
2022-08-09T05:50:30.974Z,35.07
2022-08-09T05:51:12.718Z,34.98
2022-08-09T05:52:41.742Z,35.02
2022-08-09T05:53:56.592Z,34.94
2022-08-09T05:55:07.324Z,34.73
2022-08-09T05:56:17.053Z,34.82
2022-08-09T05:57:51.021Z,34.75
2022-08-09T05:58:57.878Z,34.97
2022-08-09T06:00:09.566Z,35.02
2022-08-09T06:01:22.793Z,35.38
2022-08-09T06:02:29.626Z,35.27
2022-08-09T06:03:43.681Z,35.29
2022-08-09T06:04:50.954Z,35.48
2022-08-09T06:06:06.136Z,35.53
2022-08-09T06:07:21.655Z,35.62
2022-08-09T06:08:30.506Z,35.75
2022-08-09T06:09:54.944Z,35.72
2022-08-09T06:11:17.566Z,35.88
2022-08-09T06:12:27.348Z,35.86
2022-08-09T06:13:34.489Z,35.84
2022-08-09T06:14:44.916Z,35.87
2022-08-09T06:15:52.321Z,35.85
2022-08-09T06:16:59.423Z,35.99
2022-08-09T06:18:13.396Z,35.82
2022-08-09T06:19:24.928Z,35.54
2022-08-09T06:20:36.130Z,35.59
2022-08-09T06:21:51.438Z,35.52
2022-08-09T06:23:07.443Z,35.62
2022-08-09T06:24:19.565Z,35.42
2022-08-09T06:25:27.618Z,35.45
2022-08-09T06:26:45.245Z,35.47
2022-08-09T06:27:53.583Z,35.44
2022-08-09T06:29:05.011Z,35.26
2022-08-09T06:30:14.057Z,35.16
2022-08-09T06:31:30.587Z,35.14
2022-08-09T06:33:13.214Z,35.08
2022-08-09T06:34:09.666Z,35.09
2022-08-09T06:35:16.888Z,34.98
2022-08-09T06:36:27.350Z,35.18
2022-08-09T06:37:53.040Z,35.24
2022-08-09T06:39:12.353Z,35.26
2022-08-09T06:40:23.972Z,35.36
2022-08-09T06:42:07.821Z,35.31
2022-08-09T06:42:59.043Z,35.55
2022-08-09T06:44:08.926Z,35.38
2022-08-09T06:46:06.593Z,35.62
2022-08-09T06:46:43.980Z,35.69
2022-08-09T06:48:00.590Z,35.87
2022-08-09T06:49:09.616Z,36.23
2022-08-09T06:50:19.203Z,36.15
2022-08-09T06:51:29.617Z,36.29
2022-08-09T06:52:38.000Z,36.41
2022-08-09T06:53:45.165Z,36.49
2022-08-09T06:54:58.022Z,36.53
2022-08-09T06:56:04.340Z,36.62
2022-08-09T06:57:10.699Z,36.66
2022-08-09T06:58:40.619Z,36.70
2022-08-09T07:00:53.930Z,37.12
2022-08-09T07:01:16.003Z,36.97
2022-08-09T07:02:29.208Z,37.10
2022-08-09T07:03:52.171Z,37.14
2022-08-09T07:05:01.231Z,37.25
2022-08-09T07:06:08.510Z,37.60
2022-08-09T07:07:28.542Z,37.89
2022-08-09T07:08:45.102Z,37.75
2022-08-09T07:09:55.598Z,38.10
2022-08-09T07:11:08.561Z,38.38
2022-08-09T07:12:40.757Z,38.27
2022-08-09T07:14:05.482Z,38.43
2022-08-09T07:16:35.057Z,38.55
2022-08-09T07:16:48.847Z,38.69
2022-08-09T07:18:02.544Z,38.56
2022-08-09T07:19:15.707Z,38.71
2022-08-09T07:20:31.598Z,38.92
2022-08-09T07:21:37.771Z,38.90
2022-08-09T07:22:52.768Z,39.10
2022-08-09T07:24:01.725Z,39.00
2022-08-09T07:25:11.798Z,39.13
2022-08-09T07:26:23.408Z,39.06
2022-08-09T07:27:34.414Z,39.22
2022-08-09T07:29:08.410Z,39.31
2022-08-09T07:30:17.050Z,39.50
2022-08-09T07:31:25.966Z,39.43
2022-08-09T07:32:38.407Z,39.57
2022-08-09T07:33:52.831Z,39.77
2022-08-09T07:35:07.954Z,39.88
2022-08-09T07:36:18.588Z,39.82
2022-08-09T07:37:26.473Z,39.98
2022-08-09T07:38:34.699Z,40.18
2022-08-09T07:39:43.286Z,40.24
2022-08-09T07:41:08.376Z,40.27
2022-08-09T07:42:20.130Z,40.54
2022-08-09T07:43:50.128Z,40.71
2022-08-09T07:45:14.995Z,40.91
2022-08-09T07:46:32.254Z,41.17
2022-08-09T07:48:00.628Z,40.99
2022-08-09T07:49:15.443Z,40.88
2022-08-09T07:50:34.840Z,40.98
2022-08-09T07:52:04.545Z,40.91
2022-08-09T07:53:13.242Z,40.89
2022-08-09T07:54:28.250Z,41.21
2022-08-09T07:55:41.358Z,41.01
2022-08-09T07:57:11.638Z,41.07
2022-08-09T07:58:26.299Z,41.05
2022-08-09T07:59:51.015Z,41.39
2022-08-09T08:01:06.557Z,42.11
2022-08-09T08:02:19.511Z,42.44
2022-08-09T08:03:28.102Z,42.42
2022-08-09T08:04:36.329Z,42.32
2022-08-09T08:05:57.679Z,42.16
2022-08-09T08:07:27.014Z,42.14
2022-08-09T08:09:00.804Z,42.38
2022-08-09T08:10:07.712Z,42.47
2022-08-09T08:12:09.796Z,42.13
2022-08-09T08:12:46.835Z,42.03
2022-08-09T08:13:57.583Z,42.33
2022-08-09T08:15:04.499Z,42.31
2022-08-09T08:16:29.809Z,42.24
2022-08-09T08:17:54.691Z,42.53
2022-08-09T08:19:04.462Z,42.25
2022-08-09T08:20:13.137Z,42.24
2022-08-09T08:21:21.269Z,42.09
2022-08-09T08:22:31.053Z,42.06
2022-08-09T08:23:42.929Z,42.27
2022-08-09T08:25:04.098Z,42.58
2022-08-09T08:26:26.639Z,42.59
2022-08-09T08:27:49.816Z,42.26
2022-08-09T08:28:56.331Z,42.42
2022-08-09T08:30:04.276Z,42.23
2022-08-09T08:31:14.698Z,42.06
2022-08-09T08:32:28.904Z,41.86
2022-08-09T08:33:40.730Z,41.83
2022-08-09T08:35:00.545Z,41.89
2022-08-09T08:36:08.214Z,41.75
2022-08-09T08:37:17.807Z,41.77
2022-08-09T08:38:25.123Z,41.88
2022-08-09T08:39:38.205Z,41.75
2022-08-09T08:40:51.220Z,41.72
2022-08-09T08:42:00.149Z,41.85
2022-08-09T08:43:13.639Z,41.92
2022-08-09T08:44:27.395Z,42.12
2022-08-09T08:46:03.939Z,41.93
2022-08-09T08:47:24.216Z,42.13
2022-08-09T08:48:37.528Z,42.10
2022-08-09T08:49:49.996Z,42.15
2022-08-09T08:50:57.059Z,42.13
2022-08-09T08:52:10.132Z,42.16
2022-08-09T08:53:21.794Z,42.30
2022-08-09T08:54:30.093Z,42.37
2022-08-09T08:55:38.317Z,42.57
2022-08-09T08:56:48.835Z,42.58
2022-08-09T08:57:58.388Z,42.46
2022-08-09T08:59:19.886Z,42.65
2022-08-09T09:00:34.787Z,42.72
2022-08-09T09:01:53.220Z,42.62
2022-08-09T09:03:10.425Z,42.77
2022-08-09T09:04:27.066Z,42.64
2022-08-09T09:05:58.346Z,42.73
2022-08-09T09:07:04.408Z,42.79
2022-08-09T09:08:29.797Z,42.97
2022-08-09T09:09:58.642Z,42.98
2022-08-09T09:11:07.510Z,43.02
2022-08-09T09:12:16.928Z,42.93
2022-08-09T09:13:24.285Z,42.94
2022-08-09T09:14:52.962Z,43.01
2022-08-09T09:15:59.383Z,43.13
2022-08-09T09:17:05.903Z,43.20
2022-08-09T09:18:18.461Z,43.59
2022-08-09T09:19:42.079Z,43.66
2022-08-09T09:20:50.332Z,43.44
2022-08-09T09:22:12.700Z,43.44
2022-08-09T09:23:58.050Z,43.91
2022-08-09T09:26:03.097Z,45.00
2022-08-09T09:26:38.183Z,45.36
2022-08-09T09:28:04.499Z,45.62
2022-08-09T09:29:17.254Z,45.73
2022-08-09T09:30:40.995Z,45.64
2022-08-09T09:32:01.762Z,45.41
2022-08-09T09:33:16.891Z,45.37
2022-08-09T09:34:32.354Z,45.34
2022-08-09T09:36:01.637Z,45.37
2022-08-09T09:37:13.039Z,45.78
2022-08-09T09:38:36.310Z,45.82
2022-08-09T09:39:55.396Z,46.08
2022-08-09T09:41:10.716Z,46.07
2022-08-09T09:42:30.875Z,46.10
2022-08-09T09:44:10.138Z,46.26
2022-08-09T09:45:08.637Z,46.38
2022-08-09T09:47:58.516Z,46.46
2022-08-09T09:49:06.882Z,46.37
2022-08-09T09:50:17.374Z,46.59
2022-08-09T09:51:37.989Z,46.68
2022-08-09T09:52:56.479Z,46.61
2022-08-09T09:54:19.110Z,46.53
2022-08-09T09:55:32.998Z,46.56
2022-08-09T09:56:53.451Z,46.75
2022-08-09T09:58:19.274Z,47.01
2022-08-09T09:59:35.740Z,47.35
2022-08-09T10:00:52.509Z,47.37
2022-08-09T10:02:04.653Z,47.51
2022-08-09T10:03:13.925Z,47.32
2022-08-09T10:04:23.067Z,47.37
2022-08-09T10:06:03.611Z,47.55
2022-08-09T10:07:30.072Z,48.03
2022-08-09T10:08:54.515Z,47.91
2022-08-09T10:10:06.727Z,47.87
2022-08-09T10:11:59.804Z,48.02
2022-08-09T10:13:00.983Z,48.02
2022-08-09T10:14:07.078Z,48.21
2022-08-09T10:15:50.837Z,48.45
2022-08-09T10:16:57.028Z,48.61
2022-08-09T10:18:14.447Z,48.91
2022-08-09T10:19:36.495Z,49.01
2022-08-09T10:20:45.541Z,48.93
2022-08-09T10:21:52.609Z,48.85
2022-08-09T10:23:01.215Z,48.87
2022-08-09T10:24:16.030Z,49.03
2022-08-09T10:26:06.766Z,48.95
2022-08-09T10:27:02.776Z,48.77
2022-08-09T10:28:17.084Z,48.77
2022-08-09T10:30:22.133Z,48.67
2022-08-09T10:32:27.544Z,48.71
2022-08-09T10:32:42.355Z,48.67
2022-08-09T10:34:10.382Z,48.96
2022-08-09T10:35:21.295Z,49.19
2022-08-09T10:36:29.577Z,49.07
2022-08-09T10:37:38.237Z,49.14
2022-08-09T10:38:56.707Z,49.02
2022-08-09T10:40:33.733Z,49.19
2022-08-09T10:41:43.426Z,49.32
2022-08-09T10:42:53.131Z,49.60
2022-08-09T10:44:01.990Z,49.79
2022-08-09T10:45:12.228Z,49.83
2022-08-09T10:47:03.982Z,50.35
2022-08-09T10:48:41.824Z,50.56
2022-08-09T10:50:03.245Z,50.50
2022-08-09T10:51:40.980Z,50.78
2022-08-09T10:53:10.176Z,50.93
2022-08-09T10:54:16.914Z,51.06
2022-08-09T10:55:49.322Z,51.21
2022-08-09T10:57:15.558Z,51.14
2022-08-09T10:58:37.088Z,51.08
2022-08-09T10:59:57.588Z,51.19
2022-08-09T11:03:14.130Z,51.17
2022-08-09T11:03:15.768Z,51.17
2022-08-09T11:04:32.618Z,51.08
2022-08-09T11:05:39.019Z,50.96
2022-08-09T11:07:06.207Z,50.99
2022-08-09T11:08:51.159Z,51.05
2022-08-09T11:09:59.779Z,51.10
2022-08-09T11:11:08.870Z,51.11
2022-08-09T11:12:20.049Z,51.46
2022-08-09T11:13:50.174Z,51.60
2022-08-09T11:15:33.953Z,51.73
2022-08-09T11:16:47.046Z,51.89
2022-08-09T11:18:03.114Z,51.89
2022-08-09T11:19:11.506Z,51.99
2022-08-09T11:20:23.120Z,52.25
2022-08-09T11:22:16.908Z,52.05
2022-08-09T11:23:29.911Z,51.90
2022-08-09T11:25:09.821Z,51.82
2022-08-09T11:26:54.716Z,52.17
2022-08-09T11:28:14.524Z,52.06
2022-08-09T11:30:04.145Z,51.85
2022-08-09T11:31:49.366Z,51.71
2022-08-09T11:33:18.527Z,51.84
2022-08-09T11:34:43.997Z,51.96
2022-08-09T11:35:57.469Z,51.90
2022-08-09T11:37:07.497Z,52.22
2022-08-09T11:38:32.766Z,52.46
2022-08-09T11:40:02.885Z,52.76
2022-08-09T11:41:17.356Z,52.70
2022-08-09T11:42:49.965Z,52.55
2022-08-09T11:43:57.173Z,52.51
2022-08-09T11:45:03.388Z,52.44
2022-08-09T11:46:11.861Z,52.48
2022-08-09T11:47:18.041Z,52.82
2022-08-09T11:48:26.587Z,52.78
2022-08-09T11:50:55.068Z,53.37
2022-08-09T11:52:56.355Z,53.21
2022-08-09T11:53:59.917Z,53.51
2022-08-09T11:55:51.612Z,53.85
2022-08-09T11:57:56.874Z,53.93
2022-08-09T11:59:08.371Z,53.76
2022-08-09T12:00:20.466Z,53.78
2022-08-09T12:02:34.314Z,53.44
2022-08-09T12:03:54.916Z,53.41
2022-08-09T12:05:01.800Z,53.53
2022-08-09T12:06:17.342Z,53.44
2022-08-09T12:07:41.173Z,53.12
2022-08-09T12:08:52.273Z,53.12
2022-08-09T12:10:02.508Z,53.15
2022-08-09T12:11:12.806Z,53.15
2022-08-09T12:12:29.208Z,53.25
2022-08-09T12:14:07.538Z,53.45
2022-08-09T12:15:48.819Z,53.39
2022-08-09T12:16:56.774Z,53.41
2022-08-09T12:18:04.286Z,53.36
2022-08-09T12:19:15.359Z,53.23
2022-08-09T12:20:24.769Z,53.35
2022-08-09T12:21:50.283Z,53.41
2022-08-09T12:23:05.002Z,53.41
2022-08-09T12:24:23.813Z,53.25
2022-08-09T12:25:38.255Z,53.29
2022-08-09T12:29:00.307Z,53.70
2022-08-09T12:29:09.869Z,54.03
2022-08-09T12:30:01.581Z,53.45
2022-08-09T12:31:58.202Z,53.47
2022-08-09T12:33:03.658Z,53.29
2022-08-09T12:34:10.827Z,53.38
2022-08-09T12:35:21.759Z,53.45
2022-08-09T12:36:33.617Z,53.85
2022-08-09T12:37:50.350Z,54.02
2022-08-09T12:39:02.220Z,54.04
2022-08-09T12:40:11.058Z,53.98
2022-08-09T12:41:18.054Z,53.85
2022-08-09T12:42:26.506Z,53.75
2022-08-09T12:44:04.890Z,53.68
2022-08-09T12:45:02.899Z,53.62
2022-08-09T12:46:29.926Z,53.55
2022-08-09T12:47:45.051Z,53.68
2022-08-09T12:48:58.241Z,53.72
2022-08-09T12:50:23.338Z,53.57
2022-08-09T12:52:00.613Z,53.54
2022-08-09T12:53:17.507Z,53.32
2022-08-09T12:54:26.693Z,53.20
2022-08-09T12:56:14.625Z,53.13
2022-08-09T12:57:02.259Z,52.97
2022-08-09T12:58:27.558Z,52.81
2022-08-09T12:59:40.012Z,52.68
2022-08-09T13:01:06.793Z,52.74
2022-08-09T13:02:12.803Z,52.73
2022-08-09T13:03:53.400Z,52.72
2022-08-09T13:05:03.382Z,52.71
2022-08-09T13:06:15.855Z,52.99
2022-08-09T13:07:50.120Z,53.16
2022-08-09T13:09:19.348Z,53.31
2022-08-09T13:10:27.127Z,53.77
2022-08-09T13:11:47.455Z,53.61
2022-08-09T13:13:09.093Z,53.77
2022-08-09T13:14:40.807Z,53.63
2022-08-09T13:16:03.114Z,53.59
2022-08-09T13:17:43.913Z,53.59
2022-08-09T13:18:49.674Z,53.68
2022-08-09T13:20:10.334Z,53.48
2022-08-09T13:22:37.826Z,53.45
2022-08-09T13:23:44.431Z,53.57
2022-08-09T13:24:52.645Z,53.61
2022-08-09T13:26:01.047Z,53.60
2022-08-09T13:27:40.233Z,53.66
2022-08-09T13:29:18.764Z,53.77
2022-08-09T13:32:12.632Z,53.83
2022-08-09T13:32:17.842Z,53.97
2022-08-09T13:33:52.503Z,54.17
2022-08-09T13:34:55.778Z,54.21
2022-08-09T13:36:24.576Z,54.28
2022-08-09T13:37:52.197Z,54.25
2022-08-09T13:41:17.139Z,54.21
2022-08-09T13:41:51.303Z,54.03
2022-08-09T13:42:18.802Z,54.00
2022-08-09T13:43:35.681Z,54.01
2022-08-09T13:44:48.621Z,54.04
2022-08-09T13:46:44.821Z,54.12
2022-08-09T13:47:33.537Z,54.13
2022-08-09T13:48:50.848Z,54.09
2022-08-09T13:50:01.062Z,54.16
2022-08-09T13:51:10.843Z,54.23
2022-08-09T13:52:18.232Z,54.48
2022-08-09T13:53:43.478Z,54.53
2022-08-09T13:55:00.083Z,54.42
2022-08-09T13:56:12.063Z,54.19
2022-08-09T13:57:35.326Z,54.18
2022-08-09T13:58:47.331Z,54.07
2022-08-09T13:59:55.146Z,54.08
2022-08-09T14:01:13.277Z,54.11
2022-08-09T14:02:42.323Z,54.15
2022-08-09T14:04:05.597Z,53.98
2022-08-09T14:06:00.247Z,53.82
2022-08-09T14:06:55.812Z,53.59
2022-08-09T14:08:04.939Z,53.58
2022-08-09T14:09:12.765Z,53.50
2022-08-09T14:10:45.927Z,53.39
2022-08-09T14:11:53.501Z,53.22
2022-08-09T14:13:00.537Z,52.98
2022-08-09T14:14:16.390Z,52.61
2022-08-09T14:16:09.351Z,52.52
2022-08-09T14:16:59.440Z,52.39
2022-08-09T14:18:18.663Z,52.25
2022-08-09T14:19:35.056Z,52.01
2022-08-09T14:20:42.568Z,51.71
2022-08-09T14:21:54.385Z,51.26
2022-08-09T14:23:01.033Z,51.08
2022-08-09T14:24:21.905Z,50.70
2022-08-09T14:25:43.429Z,50.46
2022-08-09T14:26:52.076Z,50.28
2022-08-09T14:28:03.936Z,50.02
2022-08-09T14:30:18.358Z,49.96
2022-08-09T14:30:41.699Z,49.75
2022-08-09T14:31:53.455Z,49.74
2022-08-09T14:33:11.174Z,49.64
2022-08-09T14:34:31.609Z,49.54
2022-08-09T14:35:52.982Z,49.28
2022-08-09T14:37:10.826Z,49.24
2022-08-09T14:38:18.819Z,49.21
2022-08-09T14:39:46.396Z,49.21
2022-08-09T14:41:02.177Z,49.21
2022-08-09T14:42:31.595Z,49.07
2022-08-09T14:43:53.227Z,48.94
2022-08-09T14:46:40.337Z,48.81
2022-08-09T14:46:58.196Z,48.87
2022-08-09T14:48:03.790Z,49.04
2022-08-09T14:49:11.355Z,49.02
2022-08-09T14:50:23.302Z,48.81
2022-08-09T14:51:42.221Z,48.63
2022-08-09T14:52:51.879Z,48.38
2022-08-09T14:53:57.721Z,48.28
2022-08-09T14:55:05.614Z,48.15
2022-08-09T14:56:16.830Z,47.87
2022-08-09T14:57:32.029Z,47.46
2022-08-09T14:58:56.263Z,47.31
2022-08-09T15:00:05.956Z,46.92
2022-08-09T15:01:15.306Z,46.62
2022-08-09T15:02:22.345Z,46.35
2022-08-09T15:03:31.728Z,46.20
2022-08-09T15:04:39.214Z,45.93
2022-08-09T15:05:52.279Z,45.52
2022-08-09T15:07:10.246Z,45.22
2022-08-09T15:08:23.930Z,45.25
2022-08-09T15:10:07.212Z,44.97
2022-08-09T15:11:00.329Z,44.83
2022-08-09T15:12:11.597Z,44.62
2022-08-09T15:13:21.191Z,44.31
2022-08-09T15:14:33.830Z,44.21
2022-08-09T15:15:41.642Z,43.82
2022-08-09T15:16:52.327Z,43.16
2022-08-09T15:17:59.792Z,42.96
2022-08-09T15:19:17.887Z,42.64
2022-08-09T15:21:55.464Z,42.44
2022-08-09T15:22:02.403Z,41.92
2022-08-09T15:24:03.689Z,41.46
2022-08-09T15:24:42.337Z,40.91
2022-08-09T15:25:55.666Z,39.74
2022-08-09T15:27:02.645Z,39.50
2022-08-09T15:28:26.248Z,39.34
2022-08-09T15:30:48.627Z,38.53
2022-08-09T15:31:13.208Z,38.63
2022-08-09T15:32:28.940Z,38.58
2022-08-09T15:34:32.449Z,38.55
2022-08-09T15:35:40.218Z,38.43
2022-08-09T15:36:48.182Z,38.10
2022-08-09T15:37:57.387Z,37.87
2022-08-09T15:39:21.725Z,37.16
2022-08-09T15:40:32.472Z,37.38
2022-08-09T15:41:42.211Z,37.15
2022-08-09T15:42:50.773Z,37.06
2022-08-09T15:43:57.881Z,36.84
2022-08-09T15:45:07.181Z,36.22
2022-08-09T15:46:33.744Z,35.46
2022-08-09T15:48:02.517Z,35.80
2022-08-09T15:49:22.375Z,36.01
2022-08-09T15:50:32.256Z,35.83
2022-08-09T15:52:03.699Z,35.54
2022-08-09T15:54:02.208Z,34.66
2022-08-09T15:54:48.949Z,33.77
2022-08-09T15:57:35.335Z,33.57
2022-08-09T15:58:53.661Z,32.93
2022-08-09T16:00:01.706Z,33.02
2022-08-09T16:01:14.211Z,32.68
2022-08-09T16:02:27.106Z,31.70
2022-08-09T16:03:38.776Z,30.18
2022-08-09T16:04:49.828Z,29.44
2022-08-09T16:06:03.256Z,29.69
2022-08-09T16:07:12.351Z,29.92
2022-08-09T16:08:29.865Z,29.39
2022-08-09T16:09:51.217Z,28.45
2022-08-09T16:11:05.644Z,27.87
2022-08-09T16:12:15.840Z,27.88
2022-08-09T16:14:03.530Z,27.73
2022-08-09T16:14:52.851Z,27.90
2022-08-09T16:16:11.973Z,27.07
2022-08-09T16:17:28.609Z,26.06
2022-08-09T16:18:36.094Z,25.20
2022-08-09T16:19:48.919Z,24.15
2022-08-09T16:20:56.467Z,23.71
2022-08-09T16:22:05.963Z,23.29
2022-08-09T16:23:25.203Z,23.27
2022-08-09T16:24:34.074Z,23.26
2022-08-09T16:25:42.850Z,23.31
2022-08-09T16:26:58.821Z,23.42
2022-08-09T16:28:05.839Z,23.39
2022-08-09T16:29:16.410Z,23.44
2022-08-09T16:30:29.938Z,22.93
2022-08-09T16:32:18.259Z,22.67
2022-08-09T16:33:15.861Z,22.63
2022-08-09T16:34:23.795Z,22.65
2022-08-09T16:35:57.582Z,22.85
2022-08-09T16:37:01.027Z,22.93
2022-08-09T16:38:07.571Z,22.92
2022-08-09T16:39:14.234Z,22.82
2022-08-09T16:40:30.020Z,22.57
2022-08-09T16:42:03.511Z,22.34